Terminal Aerodrome Forecast
Issued by NWS

Home | Current Version | Previous Version | Text Only | Print | Product List | Glossary On
Versions: 1 2 3 4 5 6 7 8 9 10 11 12 13 14 15
000
FTUS42 KTBW 152300
TAFPGD
TAF
KPGD 152337Z 1600/1624 VRB05KT P6SM FEW040 SCT250
     FM160200 VRB03KT P6SM FEW250
     FM161500 08005KT P6SM FEW040 SCT250
     FM161800 30006KT P6SM FEW040 SCT250=

USA.gov is the U.S. government's official web portal to all federal, state and local government web resources and services.